Terminal Aerodrome Forecast
Issued by NWS

Home | Current Version | Previous Version | Text Only | Print | Product List | Glossary On
Versions: 1 2 3 4 5 6 7 8 9 10 11 12 13 14
313
FTAK31 PAJN 300748 AAA
TAFAWG
TAF AMD
PAWG 300748Z 3008/3106 00000KT P6SM -SHRA OVC024
     FM300900 VRB03KT P6SM VCSH FEW007 SCT015 OVC025
     FM301100 VRB02KT P6SM BKN007 BKN015 OVC025
     FM301600 30005KT P6SM SCT015 BKN025 OVC040
     FM302100 28008KT P6SM SCT025 BKN045
      AMD LTD TO CLD VIS AND WIND 3006/3015=

USA.gov is the U.S. government's official web portal to all federal, state and local government web resources and services.